createdAt,value
2023-02-24T00:00:38.129Z,42.05
2023-02-24T00:03:06.371Z,42.13
2023-02-24T00:05:36.189Z,40.50
2023-02-24T00:08:04.445Z,38.45
2023-02-24T00:10:33.186Z,39.08
2023-02-24T00:13:01.249Z,39.25
2023-02-24T00:15:29.714Z,37.40
2023-02-24T00:17:58.516Z,36.53
2023-02-24T00:20:26.692Z,34.60
2023-02-24T00:22:54.719Z,36.03
2023-02-24T00:25:22.608Z,35.40
2023-02-24T00:27:50.727Z,35.72
2023-02-24T00:30:21.576Z,36.80
2023-02-24T00:32:50.272Z,39.50
2023-02-24T00:35:18.269Z,40.28
2023-02-24T00:37:51.580Z,46.67
2023-02-24T00:40:23.811Z,44.30
2023-02-24T00:42:54.122Z,48.45
2023-02-24T00:45:22.245Z,46.45
2023-02-24T00:47:50.612Z,44.38
2023-02-24T00:50:18.592Z,36.10
2023-02-24T00:52:48.281Z,33.22
2023-02-24T00:55:16.396Z,36.75
2023-02-24T00:57:45.306Z,36.22
2023-02-24T01:00:15.325Z,39.00
2023-02-24T01:02:48.006Z,41.55
2023-02-24T01:05:16.264Z,41.80
2023-02-24T01:07:44.261Z,44.75
2023-02-24T01:10:12.651Z,44.30
2023-02-24T01:12:50.034Z,44.97
2023-02-24T01:15:20.753Z,45.45
2023-02-24T01:17:48.856Z,41.08
2023-02-24T01:20:18.893Z,42.17
2023-02-24T01:22:50.271Z,38.20
2023-02-24T01:25:20.714Z,43.83
2023-02-24T01:27:49.650Z,47.17
2023-02-24T01:30:18.618Z,48.38
2023-02-24T01:32:48.217Z,48.15
2023-02-24T01:35:16.786Z,42.60
2023-02-24T01:37:45.755Z,39.60
2023-02-24T01:40:18.998Z,38.63
2023-02-24T01:42:47.949Z,37.22
2023-02-24T01:45:21.473Z,33.72
2023-02-24T01:47:50.364Z,34.50
2023-02-24T01:50:22.234Z,34.00
2023-02-24T01:52:56.281Z,34.22
2023-02-24T01:55:32.867Z,34.03
2023-02-24T01:58:05.349Z,41.67
2023-02-24T02:00:45.394Z,42.97
2023-02-24T02:03:35.331Z,46.33
2023-02-24T02:06:11.495Z,49.88
2023-02-24T02:08:43.708Z,47.97
2023-02-24T02:11:20.607Z,45.97
2023-02-24T02:13:51.872Z,49.47
2023-02-24T02:16:31.943Z,50.10
2023-02-24T02:19:18.737Z,50.10
2023-02-24T02:22:12.794Z,50.13
2023-02-24T02:25:09.745Z,53.30
2023-02-24T02:28:10.722Z,48.38
2023-02-24T02:30:44.033Z,46.63
2023-02-24T02:36:07.103Z,41.77
2023-02-24T02:38:45.051Z,39.83
2023-02-24T02:41:36.582Z,41.45
2023-02-24T02:44:21.728Z,44.88
2023-02-24T02:47:00.994Z,43.83
2023-02-24T02:49:34.439Z,41.92
2023-02-24T02:52:13.875Z,40.72
2023-02-24T02:54:50.618Z,42.40
2023-02-24T02:57:25.485Z,36.42
2023-02-24T03:00:10.786Z,37.67
2023-02-24T03:02:50.754Z,41.25
2023-02-24T03:05:29.749Z,42.10
2023-02-24T03:08:04.917Z,41.17
2023-02-24T03:10:34.497Z,42.03
2023-02-24T03:13:06.164Z,43.35
2023-02-24T03:15:36.564Z,38.17
2023-02-24T03:18:12.432Z,39.03
2023-02-24T03:20:47.527Z,40.03
2023-02-24T03:23:26.419Z,42.65
2023-02-24T03:26:17.433Z,40.80
2023-02-24T03:29:17.549Z,42.70
2023-02-24T03:32:03.462Z,37.03
2023-02-24T03:34:40.894Z,38.58
2023-02-24T03:37:09.742Z,31.42
2023-02-24T03:39:39.285Z,32.55
2023-02-24T03:42:19.207Z,30.17
2023-02-24T03:44:48.376Z,31.45
2023-02-24T03:47:20.486Z,30.85
2023-02-24T03:49:50.516Z,29.75
2023-02-24T03:52:42.736Z,33.78
2023-02-24T03:55:59.000Z,36.83
2023-02-24T03:59:01.972Z,36.15
2023-02-24T04:01:58.072Z,40.15
2023-02-24T04:04:48.009Z,44.42
2023-02-24T04:07:45.766Z,45.03
2023-02-24T04:10:33.217Z,45.60
2023-02-24T04:13:35.630Z,43.33
2023-02-24T04:16:28.336Z,41.78
2023-02-24T04:19:03.013Z,42.13
2023-02-24T04:21:34.395Z,44.85
2023-02-24T04:24:11.628Z,43.00
2023-02-24T04:26:41.461Z,38.38
2023-02-24T04:29:17.620Z,35.13
2023-02-24T04:31:51.019Z,33.42
2023-02-24T04:34:20.359Z,32.33
2023-02-24T04:36:50.596Z,26.75
2023-02-24T04:39:21.030Z,36.80
2023-02-24T04:41:53.017Z,33.80
2023-02-24T04:44:22.554Z,30.73
2023-02-24T04:46:51.401Z,36.17
2023-02-24T04:49:20.760Z,31.85
2023-02-24T04:51:49.285Z,34.53
2023-02-24T04:54:19.290Z,33.00
2023-02-24T04:56:50.930Z,34.85
2023-02-24T04:59:20.886Z,34.03
2023-02-24T05:01:53.138Z,34.90
2023-02-24T05:04:21.110Z,30.58
2023-02-24T05:06:49.415Z,27.08
2023-02-24T05:09:18.254Z,28.38
2023-02-24T05:11:49.316Z,29.75
2023-02-24T05:14:21.127Z,26.73
2023-02-24T05:16:49.678Z,27.20
2023-02-24T05:19:39.112Z,28.30
2023-02-24T05:22:07.685Z,29.83
2023-02-24T05:24:35.836Z,33.03
2023-02-24T05:27:04.131Z,29.52
2023-02-24T05:29:35.392Z,28.85
2023-02-24T05:32:05.844Z,32.28
2023-02-24T05:34:34.728Z,35.53
2023-02-24T05:37:10.525Z,36.10
2023-02-24T05:39:38.821Z,40.08
2023-02-24T05:42:07.462Z,42.50
2023-02-24T05:44:36.381Z,38.08
2023-02-24T05:47:05.833Z,40.38
2023-02-24T05:49:35.349Z,40.80
2023-02-24T05:52:10.284Z,40.30
2023-02-24T05:54:44.167Z,40.97
2023-02-24T05:57:19.783Z,39.13
2023-02-24T05:59:51.973Z,40.40
2023-02-24T06:02:27.888Z,40.63
2023-02-24T06:04:56.185Z,38.80
2023-02-24T06:07:28.710Z,41.75
2023-02-24T06:10:00.269Z,39.92
2023-02-24T06:12:31.283Z,36.08
2023-02-24T06:14:59.620Z,33.78
2023-02-24T06:17:28.228Z,31.08
2023-02-24T06:19:56.456Z,35.40
2023-02-24T06:22:26.817Z,43.28
2023-02-24T06:24:57.016Z,40.40
2023-02-24T06:27:25.734Z,38.75
2023-02-24T06:29:55.059Z,37.78
2023-02-24T06:32:26.225Z,35.10
2023-02-24T06:34:58.384Z,31.95
2023-02-24T06:37:27.233Z,27.70
2023-02-24T06:39:58.475Z,29.50
2023-02-24T06:42:55.916Z,27.40
2023-02-24T06:48:50.927Z,27.52
2023-02-24T06:51:20.872Z,24.77
2023-02-24T07:00:18.003Z,23.15
2023-02-24T07:02:48.567Z,28.85
2023-02-24T07:05:19.625Z,27.52
2023-02-24T07:07:51.423Z,26.13
2023-02-24T07:10:21.202Z,22.90
2023-02-24T07:12:51.248Z,22.88
2023-02-24T07:15:19.262Z,23.77
2023-02-24T07:17:48.522Z,90.28
2023-02-24T07:20:25.670Z,33.17
2023-02-24T07:22:53.821Z,24.60
2023-02-24T07:25:34.205Z,27.20
2023-02-24T07:28:02.386Z,24.30
2023-02-24T07:30:30.833Z,24.15
2023-02-24T07:32:59.827Z,25.70
2023-02-24T07:35:28.661Z,22.25
2023-02-24T07:38:02.318Z,24.83
2023-02-24T07:40:33.428Z,24.42
2023-02-24T07:43:02.441Z,27.27
2023-02-24T07:45:31.054Z,32.28
2023-02-24T07:48:01.390Z,32.92
2023-02-24T07:50:32.888Z,36.13
2023-02-24T07:53:05.174Z,34.42
2023-02-24T07:55:38.213Z,36.50
2023-02-24T07:58:34.518Z,36.13
2023-02-24T08:01:08.888Z,33.60
2023-02-24T08:03:41.655Z,33.22
2023-02-24T08:06:15.949Z,33.72
2023-02-24T08:08:58.027Z,33.20
2023-02-24T08:11:34.671Z,31.23
2023-02-24T08:14:14.047Z,30.40
2023-02-24T08:16:45.339Z,33.03
2023-02-24T08:19:22.026Z,31.33
2023-02-24T08:21:53.135Z,29.30
2023-02-24T08:24:25.377Z,30.92
2023-02-24T08:27:05.196Z,28.37
2023-02-24T08:29:40.461Z,30.60
2023-02-24T08:32:11.892Z,29.27
2023-02-24T08:34:39.890Z,29.63
2023-02-24T08:37:07.878Z,29.65
2023-02-24T08:39:36.576Z,31.48
2023-02-24T08:42:05.078Z,29.77
2023-02-24T08:44:35.200Z,28.95
2023-02-24T08:47:05.589Z,31.77
2023-02-24T08:49:34.163Z,29.40
2023-02-24T08:52:02.545Z,32.63
2023-02-24T08:54:32.185Z,32.90
2023-02-24T08:57:09.742Z,30.95
2023-02-24T08:59:38.113Z,28.85
2023-02-24T09:02:18.759Z,30.88
2023-02-24T09:04:49.114Z,31.77
2023-02-24T09:07:23.148Z,30.77
2023-02-24T09:09:56.360Z,31.50
2023-02-24T09:15:01.465Z,30.45
2023-02-24T09:21:16.143Z,33.15
2023-02-24T09:23:46.988Z,31.48
2023-02-24T09:26:15.248Z,31.00
2023-02-24T09:28:52.375Z,34.05
2023-02-24T09:31:24.873Z,34.78
2023-02-24T09:33:53.214Z,33.35
2023-02-24T09:36:31.051Z,34.92
2023-02-24T09:39:00.656Z,32.25
2023-02-24T09:41:53.762Z,32.17
2023-02-24T09:44:52.995Z,29.90
2023-02-24T09:48:12.294Z,29.50
2023-02-24T09:51:04.542Z,28.48
2023-02-24T09:53:49.528Z,28.75
2023-02-24T09:56:27.105Z,28.75
2023-02-24T09:59:10.427Z,28.35
2023-02-24T10:01:45.925Z,31.65
2023-02-24T10:04:49.777Z,28.20
2023-02-24T10:07:38.536Z,28.27
2023-02-24T10:10:29.746Z,29.42
2023-02-24T10:13:14.609Z,29.98
2023-02-24T10:15:58.024Z,29.30
2023-02-24T10:18:31.631Z,32.80
2023-02-24T10:22:00.583Z,35.95
2023-02-24T10:24:41.361Z,34.15
2023-02-24T10:27:18.205Z,33.08
2023-02-24T10:30:11.060Z,32.03
2023-02-24T10:32:47.658Z,31.33
2023-02-24T10:35:18.688Z,27.88
2023-02-24T10:37:46.962Z,26.95
2023-02-24T10:40:26.541Z,25.92
2023-02-24T10:43:11.023Z,25.42
2023-02-24T10:45:47.499Z,25.23
2023-02-24T10:48:41.023Z,25.33
2023-02-24T10:51:23.260Z,24.35
2023-02-24T10:54:14.610Z,25.45
2023-02-24T10:56:55.499Z,25.35
2023-02-24T10:59:48.508Z,26.00
2023-02-24T11:02:57.134Z,25.30
2023-02-24T11:05:38.588Z,24.27
2023-02-24T11:08:47.039Z,23.27
2023-02-24T11:11:42.721Z,20.55
2023-02-24T11:14:36.091Z,19.88
2023-02-24T11:17:17.515Z,19.27
2023-02-24T11:19:55.558Z,19.52
2023-02-24T11:22:36.936Z,20.75
2023-02-24T11:25:32.756Z,19.98
2023-02-24T11:28:00.934Z,21.13
2023-02-24T11:30:43.713Z,23.30
2023-02-24T11:33:42.860Z,21.90
2023-02-24T11:36:33.464Z,18.92
2023-02-24T11:39:22.702Z,17.05
2023-02-24T11:41:55.631Z,15.00
2023-02-24T11:44:29.827Z,14.50
2023-02-24T11:47:04.121Z,14.60
2023-02-24T11:49:42.157Z,12.35
2023-02-24T11:52:19.564Z,10.85
2023-02-24T11:54:53.799Z,11.05
2023-02-24T11:57:29.569Z,9.05
2023-02-24T12:00:20.349Z,9.40
2023-02-24T12:02:59.346Z,8.10
2023-02-24T12:05:39.316Z,8.13
2023-02-24T12:08:41.454Z,9.88
2023-02-24T12:11:18.460Z,20.27
2023-02-24T12:13:54.114Z,12.98
2023-02-24T12:16:28.632Z,15.10
2023-02-24T12:19:06.671Z,18.33
2023-02-24T12:21:39.600Z,16.52
2023-02-24T12:24:12.599Z,19.80
2023-02-24T12:29:42.770Z,15.63
2023-02-24T12:32:23.034Z,35.63
2023-02-24T12:35:22.667Z,15.77
2023-02-24T12:38:12.509Z,12.40
2023-02-24T12:40:46.062Z,9.68
2023-02-24T12:43:41.333Z,10.07
2023-02-24T12:46:31.525Z,17.90
2023-02-24T12:49:05.481Z,11.95
2023-02-24T12:51:33.728Z,11.10
2023-02-24T12:54:07.674Z,14.60
2023-02-24T12:57:07.945Z,18.35
2023-02-24T12:59:41.921Z,17.77
2023-02-24T13:02:48.562Z,15.23
2023-02-24T13:05:28.413Z,13.13
2023-02-24T13:08:11.983Z,14.15
2023-02-24T13:11:13.474Z,14.15
2023-02-24T13:13:56.522Z,13.65
2023-02-24T13:16:34.471Z,13.75
2023-02-24T13:19:29.864Z,14.00
2023-02-24T13:22:03.700Z,14.35
2023-02-24T13:24:32.262Z,15.10
2023-02-24T13:27:14.858Z,16.92
2023-02-24T13:29:57.187Z,18.05
2023-02-24T13:32:38.985Z,17.08
2023-02-24T13:35:16.584Z,18.38
2023-02-24T13:37:47.017Z,20.15
2023-02-24T13:40:22.416Z,20.17
2023-02-24T13:45:59.924Z,21.65
2023-02-24T13:48:32.083Z,20.30
2023-02-24T13:51:10.559Z,19.23
2023-02-24T13:54:04.194Z,16.63
2023-02-24T13:59:35.395Z,14.13
2023-02-24T14:02:27.306Z,11.80
2023-02-24T14:04:57.816Z,12.43
2023-02-24T14:07:29.628Z,12.57
2023-02-24T14:10:05.334Z,10.90
2023-02-24T14:12:36.059Z,10.35
2023-02-24T14:15:05.469Z,11.85
2023-02-24T14:17:36.504Z,12.32
2023-02-24T14:20:11.580Z,11.45
2023-02-24T14:22:55.078Z,10.82
2023-02-24T14:25:24.270Z,9.90
2023-02-24T14:27:55.965Z,10.00
2023-02-24T14:30:32.286Z,9.48
2023-02-24T14:33:02.169Z,10.75
2023-02-24T14:35:35.310Z,10.85
2023-02-24T14:38:27.626Z,12.23
2023-02-24T14:40:56.068Z,8.77
2023-02-24T14:43:24.045Z,8.88
2023-02-24T14:45:53.344Z,8.95
2023-02-24T14:48:29.093Z,9.57
2023-02-24T14:51:10.410Z,9.73
2023-02-24T14:53:46.348Z,9.85
2023-02-24T14:56:15.268Z,7.72
2023-02-24T14:58:50.928Z,9.15
2023-02-24T15:01:29.045Z,8.50
2023-02-24T15:04:01.542Z,8.63
2023-02-24T15:06:31.937Z,8.07
2023-02-24T15:09:22.211Z,8.27
2023-02-24T15:11:53.428Z,8.52
2023-02-24T15:14:30.289Z,8.48
2023-02-24T15:17:11.974Z,8.32
2023-02-24T15:19:46.470Z,9.27
2023-02-24T15:22:39.331Z,7.70
2023-02-24T15:25:24.036Z,8.00
2023-02-24T15:28:01.546Z,11.32
2023-02-24T15:30:38.855Z,11.90
2023-02-24T15:33:15.762Z,12.20
2023-02-24T15:35:52.603Z,12.30
2023-02-24T15:38:25.546Z,10.57
2023-02-24T15:41:00.107Z,10.85
2023-02-24T15:43:48.629Z,11.15
2023-02-24T15:46:19.721Z,11.35
2023-02-24T15:48:53.679Z,10.93
2023-02-24T15:51:25.027Z,11.55
2023-02-24T15:53:53.484Z,11.43
2023-02-24T15:56:21.891Z,11.82
2023-02-24T15:58:50.301Z,11.93
2023-02-24T16:01:18.921Z,11.32
2023-02-24T16:03:47.312Z,12.00
2023-02-24T16:06:20.214Z,10.38
2023-02-24T16:08:50.427Z,11.30
2023-02-24T16:11:23.382Z,12.07
2023-02-24T16:14:01.020Z,10.15
2023-02-24T16:16:29.670Z,11.77
2023-02-24T16:18:57.758Z,10.63
2023-02-24T16:21:25.997Z,11.90
2023-02-24T16:23:54.115Z,12.07
2023-02-24T16:26:23.605Z,14.13
2023-02-24T16:28:57.310Z,13.95
2023-02-24T16:31:26.527Z,14.10
2023-02-24T16:33:56.244Z,13.82
2023-02-24T16:36:26.593Z,14.88
2023-02-24T16:38:54.937Z,16.52
2023-02-24T16:41:23.779Z,19.08
2023-02-24T16:43:54.251Z,21.90
2023-02-24T16:46:23.596Z,20.10
2023-02-24T16:48:53.608Z,20.02
2023-02-24T16:51:25.040Z,20.25
2023-02-24T16:53:53.168Z,20.52
2023-02-24T16:56:21.928Z,20.65
2023-02-24T16:58:50.781Z,20.23
2023-02-24T17:01:21.730Z,23.38
2023-02-24T17:03:53.115Z,21.45
2023-02-24T17:06:23.825Z,22.67
2023-02-24T17:08:52.806Z,23.52
2023-02-24T17:11:23.770Z,21.38
2023-02-24T17:13:51.934Z,21.33
2023-02-24T17:16:21.491Z,21.83
2023-02-24T17:18:49.889Z,36.35
2023-02-24T17:21:18.350Z,34.80
2023-02-24T17:23:46.427Z,38.50
2023-02-24T17:26:15.834Z,36.15
2023-02-24T17:28:44.193Z,36.45
2023-02-24T17:31:12.612Z,45.83
2023-02-24T17:33:41.659Z,36.13
2023-02-24T17:36:09.737Z,33.50
2023-02-24T17:38:38.247Z,27.67
2023-02-24T17:41:07.323Z,27.50
2023-02-24T17:43:35.739Z,22.60
2023-02-24T17:46:06.999Z,28.20
2023-02-24T17:48:35.702Z,35.42
2023-02-24T17:51:03.854Z,35.40
2023-02-24T17:53:32.355Z,36.70
2023-02-24T17:56:07.676Z,34.00
2023-02-24T17:58:36.364Z,32.13
2023-02-24T18:01:06.886Z,32.40
2023-02-24T18:03:36.632Z,32.67
2023-02-24T18:06:10.535Z,33.67
2023-02-24T18:08:39.657Z,35.03
2023-02-24T18:11:10.173Z,34.65
2023-02-24T18:13:38.200Z,31.88
2023-02-24T18:16:14.910Z,32.28
2023-02-24T18:18:43.192Z,28.83
2023-02-24T18:21:11.263Z,25.25
2023-02-24T18:23:40.611Z,24.45
2023-02-24T18:26:11.013Z,21.75
2023-02-24T18:28:39.972Z,23.45
2023-02-24T18:31:13.217Z,21.85
2023-02-24T18:33:41.398Z,19.42
2023-02-24T18:36:10.896Z,19.98
2023-02-24T18:38:39.430Z,23.88
2023-02-24T18:41:15.711Z,31.23
2023-02-24T18:43:44.513Z,36.97
2023-02-24T18:46:14.764Z,41.63
2023-02-24T18:48:46.258Z,41.33
2023-02-24T18:51:20.310Z,39.83
2023-02-24T18:53:52.615Z,41.47
2023-02-24T18:56:24.459Z,42.33
2023-02-24T18:58:56.915Z,40.40
2023-02-24T19:01:27.566Z,50.75
2023-02-24T19:03:56.491Z,44.53
2023-02-24T19:06:27.095Z,42.70
2023-02-24T19:08:58.991Z,42.38
2023-02-24T19:11:27.846Z,36.20
2023-02-24T19:13:57.808Z,39.60
2023-02-24T19:16:26.413Z,44.55
2023-02-24T19:18:56.679Z,44.20
2023-02-24T19:21:27.284Z,44.25
2023-02-24T19:23:55.490Z,41.13
2023-02-24T19:26:26.715Z,41.78
2023-02-24T19:28:55.286Z,41.45
2023-02-24T19:31:27.414Z,42.40
2023-02-24T19:34:00.480Z,40.17
2023-02-24T19:36:31.538Z,34.78
2023-02-24T19:39:00.351Z,32.35
2023-02-24T19:41:28.546Z,32.38
2023-02-24T19:43:56.952Z,32.70
2023-02-24T19:46:25.383Z,30.27
2023-02-24T19:48:56.092Z,29.40
2023-02-24T19:51:25.685Z,29.45
2023-02-24T19:53:55.579Z,25.73
2023-02-24T19:56:29.313Z,24.38
2023-02-24T19:59:00.039Z,24.60
2023-02-24T20:01:30.194Z,42.58
2023-02-24T20:04:00.457Z,39.20
2023-02-24T20:06:35.791Z,48.67
2023-02-24T20:09:32.549Z,47.65
2023-02-24T20:12:01.939Z,45.75
2023-02-24T20:14:30.278Z,52.28
2023-02-24T20:16:58.483Z,52.53
2023-02-24T20:19:27.129Z,57.55
2023-02-24T20:21:55.326Z,56.67
2023-02-24T20:24:23.263Z,47.60
2023-02-24T20:26:51.793Z,50.20
2023-02-24T20:29:21.647Z,48.00
2023-02-24T20:31:50.164Z,54.25
2023-02-24T20:34:18.324Z,57.78
2023-02-24T20:36:46.420Z,50.38
2023-02-24T20:39:39.999Z,52.15
2023-02-24T20:42:07.943Z,49.20
2023-02-24T20:44:36.007Z,50.45
2023-02-24T20:47:04.142Z,67.57
2023-02-24T20:49:32.989Z,50.88
2023-02-24T20:52:00.884Z,49.47
2023-02-24T20:54:29.049Z,44.53
2023-02-24T20:56:57.018Z,44.40
2023-02-24T20:59:24.934Z,46.13
2023-02-24T21:01:53.046Z,37.92
2023-02-24T21:04:21.691Z,41.17
2023-02-24T21:06:51.992Z,37.88
2023-02-24T21:09:20.069Z,33.63
2023-02-24T21:11:48.051Z,35.63
2023-02-24T21:14:16.919Z,35.63
2023-02-24T21:16:46.304Z,39.00
2023-02-24T21:19:14.416Z,39.63
2023-02-24T21:21:42.531Z,39.50
2023-02-24T21:24:10.518Z,31.02
2023-02-24T21:26:38.345Z,37.05
2023-02-24T21:29:06.335Z,29.10
2023-02-24T21:31:34.712Z,32.67
2023-02-24T21:34:02.909Z,36.28
2023-02-24T21:36:30.865Z,37.15
2023-02-24T21:38:58.855Z,34.83
2023-02-24T21:41:26.879Z,31.35
2023-02-24T21:43:55.775Z,37.00
2023-02-24T21:46:28.566Z,36.75
2023-02-24T21:48:58.514Z,36.33
2023-02-24T21:51:27.865Z,34.45
2023-02-24T21:53:57.225Z,36.13
2023-02-24T21:56:29.541Z,33.92
2023-02-24T21:59:03.722Z,36.25
2023-02-24T22:01:37.195Z,35.20
2023-02-24T22:04:08.540Z,38.47
2023-02-24T22:06:38.707Z,36.80
2023-02-24T22:09:08.663Z,32.95
2023-02-24T22:11:41.095Z,35.25
2023-02-24T22:14:14.228Z,33.73
2023-02-24T22:16:43.206Z,33.55
2023-02-24T22:19:12.053Z,33.95
2023-02-24T22:21:42.598Z,32.88
2023-02-24T22:24:14.868Z,32.78
2023-02-24T22:26:43.745Z,36.55
2023-02-24T22:29:12.022Z,33.95
2023-02-24T22:31:43.600Z,34.55
2023-02-24T22:34:13.226Z,34.78
2023-02-24T22:36:41.491Z,33.17
2023-02-24T22:39:09.775Z,34.95
2023-02-24T22:41:38.657Z,33.00
2023-02-24T22:44:07.299Z,33.65
2023-02-24T22:46:37.743Z,32.38
2023-02-24T22:49:06.015Z,34.22
2023-02-24T22:51:34.433Z,34.03
2023-02-24T22:54:02.590Z,29.52
2023-02-24T22:56:31.300Z,29.90
2023-02-24T22:59:00.943Z,28.48
2023-02-24T23:01:31.612Z,26.70
2023-02-24T23:04:01.409Z,26.10
2023-02-24T23:06:30.779Z,31.10
2023-02-24T23:09:00.930Z,29.52
2023-02-24T23:11:34.984Z,27.05
2023-02-24T23:14:06.181Z,28.30
2023-02-24T23:16:35.502Z,27.27
2023-02-24T23:19:10.689Z,27.60
2023-02-24T23:21:41.639Z,28.00
2023-02-24T23:24:11.782Z,23.30
2023-02-24T23:26:54.073Z,25.10
2023-02-24T23:29:23.668Z,25.40
2023-02-24T23:31:52.752Z,26.90
2023-02-24T23:34:21.090Z,31.45
2023-02-24T23:36:49.376Z,28.58
2023-02-24T23:39:23.105Z,37.17
2023-02-24T23:41:56.701Z,31.08
2023-02-24T23:44:25.596Z,34.10
2023-02-24T23:46:53.582Z,30.88
2023-02-24T23:49:21.578Z,34.75
2023-02-24T23:51:49.462Z,36.50
2023-02-24T23:54:18.785Z,36.00
2023-02-24T23:56:46.831Z,39.08
2023-02-24T23:59:15.620Z,23.77
